createdAt,value
2019-03-24T00:00:28.538Z,56.07
2019-03-24T00:02:58.841Z,55.33
2019-03-24T00:05:32.022Z,53.37
2019-03-24T00:08:02.261Z,57.20
2019-03-24T00:10:34.777Z,56.13
2019-03-24T00:13:11.199Z,55.67
2019-03-24T00:15:49.920Z,53.63
2019-03-24T00:18:21.215Z,57.17
2019-03-24T00:20:54.877Z,54.50
2019-03-24T00:23:26.438Z,51.97
2019-03-24T00:26:01.073Z,54.17
2019-03-24T00:28:32.848Z,55.40
2019-03-24T00:31:03.257Z,55.37
2019-03-24T00:33:33.659Z,56.07
2019-03-24T00:36:03.950Z,57.87
2019-03-24T00:38:37.817Z,56.30
2019-03-24T00:41:11.040Z,56.40
2019-03-24T00:43:41.248Z,54.70
2019-03-24T00:46:12.167Z,55.77
2019-03-24T00:48:42.566Z,57.90
2019-03-24T00:51:17.417Z,59.23
2019-03-24T00:53:52.029Z,56.70
2019-03-24T00:56:22.358Z,58.47
2019-03-24T00:58:55.438Z,59.50
2019-03-24T01:01:29.494Z,55.73
2019-03-24T01:04:01.575Z,55.90
2019-03-24T01:06:31.977Z,54.97
2019-03-24T01:09:03.468Z,57.57
2019-03-24T01:11:34.927Z,54.87
2019-03-24T01:14:08.498Z,57.03
2019-03-24T01:16:39.390Z,55.40
2019-03-24T01:19:10.657Z,58.57
2019-03-24T01:21:41.437Z,58.27
2019-03-24T01:24:17.361Z,53.47
2019-03-24T01:26:47.548Z,56.87
2019-03-24T01:29:24.028Z,54.67
2019-03-24T01:31:54.293Z,53.93
2019-03-24T01:34:24.761Z,53.03
2019-03-24T01:36:58.515Z,55.13
2019-03-24T01:39:38.293Z,55.00
2019-03-24T01:42:10.821Z,56.43
2019-03-24T01:44:41.347Z,55.53
2019-03-24T01:47:13.061Z,56.17
2019-03-24T01:49:44.695Z,55.60
2019-03-24T01:52:19.797Z,56.00
2019-03-24T01:54:51.237Z,55.27
2019-03-24T01:57:23.686Z,54.67
2019-03-24T01:59:58.512Z,55.87
2019-03-24T02:02:31.754Z,56.07
2019-03-24T02:05:02.179Z,57.37
2019-03-24T02:07:36.191Z,53.67
2019-03-24T02:10:09.963Z,57.77
2019-03-24T02:12:46.832Z,57.00
2019-03-24T02:15:27.541Z,54.83
2019-03-24T02:18:00.379Z,55.27
2019-03-24T02:20:33.464Z,58.13
2019-03-24T02:23:05.308Z,53.43
2019-03-24T02:25:44.426Z,56.53
2019-03-24T02:28:25.515Z,53.27
2019-03-24T02:31:20.486Z,52.73
2019-03-24T02:34:11.061Z,54.40
2019-03-24T02:37:11.046Z,51.97
2019-03-24T02:39:54.123Z,53.80
2019-03-24T02:42:24.400Z,53.27
2019-03-24T02:44:56.423Z,53.77
2019-03-24T02:47:38.367Z,54.23
2019-03-24T02:50:06.087Z,51.23
2019-03-24T02:52:38.237Z,52.60
2019-03-24T02:55:09.259Z,52.17
2019-03-24T02:57:42.047Z,54.23
2019-03-24T03:00:13.895Z,51.27
2019-03-24T03:02:44.808Z,53.53
2019-03-24T03:05:17.139Z,53.33
2019-03-24T03:07:47.410Z,51.30
2019-03-24T03:10:24.002Z,51.17
2019-03-24T03:13:07.036Z,52.07
2019-03-24T03:15:46.112Z,51.33
2019-03-24T03:18:16.811Z,51.53
2019-03-24T03:20:49.018Z,52.03
2019-03-24T03:23:20.553Z,51.27
2019-03-24T03:25:50.763Z,52.03
2019-03-24T03:28:27.295Z,52.93
2019-03-24T03:30:58.809Z,52.50
2019-03-24T03:33:30.361Z,52.60
2019-03-24T03:36:05.561Z,51.57
2019-03-24T03:38:36.263Z,52.87
2019-03-24T03:41:16.604Z,50.47
2019-03-24T03:43:46.628Z,52.07
2019-03-24T03:46:18.688Z,53.37
2019-03-24T03:48:48.903Z,52.77
2019-03-24T03:51:22.172Z,54.13
2019-03-24T03:53:55.454Z,53.53
2019-03-24T03:56:28.458Z,51.47
2019-03-24T03:59:01.516Z,54.07
2019-03-24T04:01:33.068Z,55.47
2019-03-24T04:04:05.123Z,52.67
2019-03-24T04:06:36.963Z,52.40
2019-03-24T04:09:09.379Z,55.47
2019-03-24T04:11:45.065Z,52.67
2019-03-24T04:14:15.361Z,52.90
2019-03-24T04:16:45.913Z,53.10
2019-03-24T04:19:16.139Z,50.97
2019-03-24T04:21:46.434Z,51.53
2019-03-24T04:24:20.518Z,52.33
2019-03-24T04:26:50.719Z,50.83
2019-03-24T04:29:20.970Z,52.03
2019-03-24T04:31:52.505Z,50.03
2019-03-24T04:34:26.779Z,50.83
2019-03-24T04:37:03.269Z,49.90
2019-03-24T04:39:33.563Z,49.40
2019-03-24T04:42:08.499Z,50.17
2019-03-24T04:44:39.903Z,52.63
2019-03-24T04:47:16.511Z,52.57
2019-03-24T04:49:45.757Z,52.30
2019-03-24T04:52:17.279Z,51.20
2019-03-24T04:54:50.346Z,50.70
2019-03-24T04:57:20.503Z,48.37
2019-03-24T04:59:53.838Z,48.33
2019-03-24T05:02:26.925Z,49.23
2019-03-24T05:04:59.642Z,50.00
2019-03-24T05:07:30.152Z,49.27
2019-03-24T05:10:00.463Z,51.23
2019-03-24T05:12:32.635Z,49.27
2019-03-24T05:15:07.727Z,49.37
2019-03-24T05:17:40.866Z,47.13
2019-03-24T05:20:13.767Z,48.67
2019-03-24T05:22:51.988Z,48.03
2019-03-24T05:25:30.765Z,47.10
2019-03-24T05:28:03.268Z,46.30
2019-03-24T05:30:36.390Z,49.03
2019-03-24T05:33:10.363Z,49.23
2019-03-24T05:35:42.812Z,48.90
2019-03-24T05:38:17.781Z,46.47
2019-03-24T05:40:50.201Z,48.47
2019-03-24T05:43:25.165Z,49.17
2019-03-24T05:45:58.071Z,50.73
2019-03-24T05:48:28.987Z,48.37
2019-03-24T05:50:59.672Z,48.67
2019-03-24T05:53:31.792Z,48.90
2019-03-24T05:56:07.606Z,47.77
2019-03-24T05:58:53.519Z,49.80
2019-03-24T06:01:43.067Z,49.47
2019-03-24T06:04:12.136Z,49.50
2019-03-24T06:06:45.533Z,51.03
2019-03-24T06:09:16.678Z,49.60
2019-03-24T06:11:47.225Z,49.10
2019-03-24T06:14:17.434Z,50.10
2019-03-24T06:16:47.650Z,48.27
2019-03-24T06:19:28.542Z,49.80
2019-03-24T06:21:58.465Z,47.83
2019-03-24T06:24:30.167Z,49.60
2019-03-24T06:27:01.686Z,48.30
2019-03-24T06:29:36.340Z,48.43
2019-03-24T06:32:13.466Z,49.00
2019-03-24T06:34:49.149Z,47.00
2019-03-24T06:37:26.484Z,47.97
2019-03-24T06:39:59.252Z,47.63
2019-03-24T06:42:29.427Z,47.50
2019-03-24T06:45:02.305Z,48.43
2019-03-24T06:47:32.426Z,48.83
2019-03-24T06:50:02.928Z,48.50
2019-03-24T06:52:35.345Z,49.97
2019-03-24T06:55:07.347Z,48.93
2019-03-24T06:57:39.097Z,47.87
2019-03-24T07:00:14.525Z,48.53
2019-03-24T07:02:49.023Z,47.63
2019-03-24T07:05:19.324Z,46.97
2019-03-24T07:07:52.705Z,47.57
2019-03-24T07:10:29.852Z,48.20
2019-03-24T07:13:00.037Z,48.60
2019-03-24T07:15:30.359Z,49.17
2019-03-24T07:18:08.635Z,46.47
2019-03-24T07:20:39.839Z,47.13
2019-03-24T07:23:22.980Z,47.57
2019-03-24T07:26:01.272Z,48.13
2019-03-24T07:28:43.515Z,49.60
2019-03-24T07:31:20.800Z,45.50
2019-03-24T07:33:52.398Z,52.10
2019-03-24T07:36:26.176Z,47.77
2019-03-24T07:38:56.511Z,51.60
2019-03-24T07:41:28.041Z,48.07
2019-03-24T07:43:58.289Z,50.00
2019-03-24T07:46:28.750Z,49.37
2019-03-24T07:49:09.407Z,48.17
2019-03-24T07:51:37.175Z,48.77
2019-03-24T07:54:11.394Z,49.30
2019-03-24T07:56:42.887Z,48.43
2019-03-24T07:59:13.122Z,48.77
2019-03-24T08:01:43.403Z,48.33
2019-03-24T08:04:13.775Z,47.57
2019-03-24T08:06:44.023Z,49.50
2019-03-24T08:09:14.666Z,48.77
2019-03-24T08:11:49.472Z,50.30
2019-03-24T08:14:19.883Z,49.10
2019-03-24T08:16:51.230Z,49.17
2019-03-24T08:19:24.330Z,46.17
2019-03-24T08:21:54.852Z,49.53
2019-03-24T08:24:25.228Z,48.40
2019-03-24T08:27:02.764Z,49.60
2019-03-24T08:29:33.410Z,50.50
2019-03-24T08:32:06.721Z,51.07
2019-03-24T08:34:40.310Z,48.87
2019-03-24T08:37:12.161Z,48.87
2019-03-24T08:39:43.927Z,48.00
2019-03-24T08:42:15.880Z,46.53
2019-03-24T08:44:46.339Z,47.93
2019-03-24T08:47:19.593Z,46.73
2019-03-24T08:49:52.657Z,50.13
2019-03-24T08:52:25.643Z,46.80
2019-03-24T08:55:03.441Z,46.53
2019-03-24T08:57:52.345Z,47.33
2019-03-24T09:00:30.968Z,44.57
2019-03-24T09:02:59.974Z,45.63
2019-03-24T09:05:35.440Z,46.87
2019-03-24T09:08:05.801Z,46.73
2019-03-24T09:10:38.926Z,45.60
2019-03-24T09:16:19.692Z,43.37
2019-03-24T09:18:52.892Z,43.77
2019-03-24T09:21:23.150Z,43.93
2019-03-24T09:24:00.656Z,44.70
2019-03-24T09:26:35.076Z,42.80
2019-03-24T09:29:07.389Z,42.90
2019-03-24T09:31:39.791Z,40.93
2019-03-24T09:34:13.063Z,43.27
2019-03-24T09:36:43.417Z,42.47
2019-03-24T09:39:13.871Z,41.13
2019-03-24T09:41:47.194Z,41.90
2019-03-24T09:44:21.106Z,43.17
2019-03-24T09:46:51.529Z,42.13
2019-03-24T09:49:31.940Z,44.97
2019-03-24T09:52:01.965Z,43.90
2019-03-24T09:54:32.661Z,40.93
2019-03-24T09:57:04.471Z,42.60
2019-03-24T09:59:36.260Z,40.53
2019-03-24T10:02:06.509Z,43.00
2019-03-24T10:04:38.835Z,40.87
2019-03-24T10:07:11.758Z,41.53
2019-03-24T10:09:42.252Z,38.03
2019-03-24T10:12:12.601Z,41.63
2019-03-24T10:14:43.155Z,38.13
2019-03-24T10:17:13.406Z,35.87
2019-03-24T10:19:45.945Z,47.50
2019-03-24T10:22:17.480Z,39.30
2019-03-24T10:24:47.884Z,41.47
2019-03-24T10:27:19.675Z,43.17
2019-03-24T10:30:00.118Z,44.30
2019-03-24T10:32:30.721Z,42.30
2019-03-24T10:35:01.255Z,38.17
2019-03-24T10:37:32.966Z,42.00
2019-03-24T10:40:05.359Z,43.87
2019-03-24T10:42:37.622Z,43.07
2019-03-24T10:45:09.860Z,40.87
2019-03-24T10:47:40.306Z,40.40
2019-03-24T10:50:14.251Z,38.07
2019-03-24T10:52:44.671Z,36.60
2019-03-24T10:55:20.238Z,32.77
2019-03-24T10:57:50.686Z,38.07
2019-03-24T11:00:48.645Z,33.90
2019-03-24T11:03:26.175Z,33.23
2019-03-24T11:05:58.025Z,34.93
2019-03-24T11:08:28.826Z,36.10
2019-03-24T11:10:59.172Z,35.33
2019-03-24T11:13:31.211Z,31.23
2019-03-24T11:16:07.745Z,30.93
2019-03-24T11:18:50.421Z,30.03
2019-03-24T11:21:20.995Z,30.50
2019-03-24T11:23:51.414Z,27.23
2019-03-24T11:26:22.146Z,26.70
2019-03-24T11:28:52.556Z,26.67
2019-03-24T11:31:24.379Z,25.50
2019-03-24T11:33:58.560Z,25.17
2019-03-24T11:36:35.724Z,24.87
2019-03-24T11:39:11.789Z,23.37
2019-03-24T11:41:45.047Z,23.67
2019-03-24T11:44:23.488Z,23.43
2019-03-24T11:46:58.686Z,23.87
2019-03-24T11:49:31.309Z,22.93
2019-03-24T11:52:03.049Z,24.67
2019-03-24T11:54:35.825Z,23.67
2019-03-24T11:57:06.129Z,23.67
2019-03-24T11:59:36.571Z,23.67
2019-03-24T12:02:09.302Z,24.10
2019-03-24T12:04:39.571Z,24.17
2019-03-24T12:07:12.682Z,24.20
2019-03-24T12:09:46.700Z,23.37
2019-03-24T12:12:17.201Z,25.17
2019-03-24T12:14:47.614Z,25.20
2019-03-24T12:17:18.011Z,23.00
2019-03-24T12:19:56.392Z,22.43
2019-03-24T12:22:21.953Z,22.27
2019-03-24T12:24:52.656Z,23.73
2019-03-24T12:27:23.492Z,23.80
2019-03-24T12:29:55.242Z,23.57
2019-03-24T12:32:25.704Z,24.17
2019-03-24T12:34:57.427Z,23.03
2019-03-24T12:37:29.797Z,24.60
2019-03-24T12:39:59.880Z,23.53
2019-03-24T12:42:39.207Z,21.67
2019-03-24T12:45:33.595Z,21.77
2019-03-24T12:48:09.581Z,20.47
2019-03-24T12:50:39.890Z,20.40
2019-03-24T12:53:10.406Z,21.20
2019-03-24T12:55:40.754Z,20.43
2019-03-24T12:58:14.402Z,20.47
2019-03-24T13:00:48.960Z,16.50
2019-03-24T13:03:26.909Z,17.20
2019-03-24T13:05:59.136Z,14.63
2019-03-24T13:08:33.961Z,12.70
2019-03-24T13:11:10.747Z,11.20
2019-03-24T13:13:41.576Z,10.50
2019-03-24T13:16:13.684Z,10.87
2019-03-24T13:18:44.275Z,10.63
2019-03-24T13:21:18.545Z,11.97
2019-03-24T13:23:53.328Z,12.77
2019-03-24T13:26:23.907Z,14.53
2019-03-24T13:29:04.365Z,13.20
2019-03-24T13:31:37.618Z,14.27
2019-03-24T13:34:12.304Z,13.70
2019-03-24T13:36:44.330Z,14.77
2019-03-24T13:39:17.173Z,14.67
2019-03-24T13:41:51.650Z,15.87
2019-03-24T13:44:21.919Z,15.37
2019-03-24T13:46:52.334Z,17.30
2019-03-24T13:49:22.776Z,16.87
2019-03-24T13:51:53.371Z,15.77
2019-03-24T13:54:23.642Z,16.77
2019-03-24T13:56:54.042Z,16.03
2019-03-24T13:59:24.328Z,12.63
2019-03-24T14:01:54.479Z,11.43
2019-03-24T14:04:25.066Z,10.63
2019-03-24T14:06:55.403Z,11.63
2019-03-24T14:09:25.722Z,9.83
2019-03-24T14:11:56.124Z,9.60
2019-03-24T14:14:26.626Z,9.70
2019-03-24T14:16:57.192Z,9.03
2019-03-24T14:19:27.551Z,9.20
2019-03-24T14:21:58.344Z,9.83
2019-03-24T14:24:29.534Z,9.37
2019-03-24T14:26:59.916Z,8.77
2019-03-24T14:29:30.156Z,8.50
2019-03-24T14:32:00.648Z,8.00
2019-03-24T14:34:31.056Z,8.17
2019-03-24T14:37:01.449Z,7.57
2019-03-24T14:39:32.016Z,6.63
2019-03-24T14:42:02.372Z,8.83
2019-03-24T14:44:32.941Z,7.67
2019-03-24T14:47:03.329Z,7.53
2019-03-24T14:49:33.679Z,6.43
2019-03-24T14:52:05.435Z,5.97
2019-03-24T14:54:35.722Z,6.33
2019-03-24T14:57:06.213Z,6.70
2019-03-24T14:59:36.635Z,6.00
2019-03-24T15:02:07.847Z,6.00
2019-03-24T15:04:39.553Z,6.13
2019-03-24T15:07:13.621Z,6.70
2019-03-24T15:09:47.152Z,5.60
2019-03-24T15:12:17.620Z,5.00
2019-03-24T15:14:48.218Z,5.83
2019-03-24T15:17:18.691Z,4.93
2019-03-24T15:19:49.247Z,4.50
2019-03-24T15:22:19.906Z,4.47
2019-03-24T15:24:50.827Z,3.70
2019-03-24T15:27:21.248Z,5.07
2019-03-24T15:29:51.835Z,4.73
2019-03-24T15:32:22.467Z,4.07
2019-03-24T15:34:53.250Z,4.43
2019-03-24T15:37:23.696Z,3.83
2019-03-24T15:39:54.072Z,3.87
2019-03-24T15:42:24.683Z,4.20
2019-03-24T15:44:55.087Z,3.67
2019-03-24T15:47:25.554Z,3.93
2019-03-24T15:49:56.189Z,3.93
2019-03-24T15:52:26.626Z,4.00
2019-03-24T15:54:57.208Z,3.93
2019-03-24T15:57:27.659Z,3.80
2019-03-24T15:59:58.239Z,4.03
2019-03-24T16:02:28.975Z,3.17
2019-03-24T16:04:59.531Z,4.10
2019-03-24T16:07:30.143Z,3.77
2019-03-24T16:10:00.599Z,3.23
2019-03-24T16:12:31.103Z,3.43
2019-03-24T16:15:01.606Z,3.47
2019-03-24T16:17:32.176Z,3.27
2019-03-24T16:20:02.614Z,3.07
2019-03-24T16:22:33.036Z,3.87
2019-03-24T16:25:03.546Z,3.20
2019-03-24T16:27:35.094Z,2.60
2019-03-24T16:30:06.278Z,3.00
2019-03-24T16:32:36.725Z,3.30
2019-03-24T16:35:07.743Z,4.30
2019-03-24T16:37:38.353Z,2.80
2019-03-24T16:40:09.425Z,3.07
2019-03-24T16:42:39.955Z,3.00
2019-03-24T16:45:12.881Z,3.23
2019-03-24T16:47:43.488Z,3.13
2019-03-24T16:50:14.489Z,2.33
2019-03-24T16:52:45.155Z,2.43
2019-03-24T16:55:15.678Z,2.70
2019-03-24T16:57:46.104Z,2.90
2019-03-24T17:00:17.569Z,3.03
2019-03-24T17:02:48.295Z,2.63
2019-03-24T17:05:19.087Z,3.30
2019-03-24T17:07:49.677Z,2.70
2019-03-24T17:10:20.193Z,3.00
2019-03-24T17:12:50.848Z,2.63
2019-03-24T17:15:21.543Z,2.90
2019-03-24T17:17:52.003Z,2.87
2019-03-24T17:20:22.779Z,2.67
2019-03-24T17:22:53.418Z,2.80
2019-03-24T17:25:23.945Z,2.63
2019-03-24T17:27:55.307Z,2.87
2019-03-24T17:30:25.817Z,3.00
2019-03-24T17:32:56.349Z,2.80
2019-03-24T17:35:29.139Z,2.90
2019-03-24T17:37:59.650Z,2.40
2019-03-24T17:40:30.140Z,2.93
2019-03-24T17:43:01.059Z,2.60
2019-03-24T17:45:33.693Z,2.20
2019-03-24T17:48:04.159Z,2.43
2019-03-24T17:50:35.079Z,2.50
2019-03-24T17:53:06.981Z,2.93
2019-03-24T17:55:37.676Z,2.87
2019-03-24T17:58:08.561Z,2.67
2019-03-24T18:00:42.168Z,2.50
2019-03-24T18:03:13.122Z,3.53
2019-03-24T18:05:43.681Z,2.50
2019-03-24T18:08:14.144Z,2.43
2019-03-24T18:10:45.478Z,3.10
2019-03-24T18:13:18.529Z,2.87
2019-03-24T18:15:49.162Z,3.03
2019-03-24T18:18:19.723Z,2.83
2019-03-24T18:20:50.302Z,3.17
2019-03-24T18:23:21.058Z,2.83
2019-03-24T18:25:51.557Z,2.77
2019-03-24T18:28:22.286Z,2.93
2019-03-24T18:30:52.890Z,3.20
2019-03-24T18:33:23.453Z,2.87
2019-03-24T18:35:54.460Z,2.70
2019-03-24T18:38:25.316Z,2.83
2019-03-24T18:40:55.864Z,3.07
2019-03-24T18:43:26.793Z,3.13
2019-03-24T18:45:57.335Z,3.60
2019-03-24T18:48:27.819Z,3.40
2019-03-24T18:50:58.925Z,3.27
2019-03-24T18:53:29.457Z,3.37
2019-03-24T18:56:01.879Z,3.63
2019-03-24T18:58:32.935Z,2.83
2019-03-24T19:01:03.653Z,3.03
2019-03-24T19:03:34.111Z,2.83
2019-03-24T19:06:04.855Z,2.50
2019-03-24T19:08:35.341Z,2.90
2019-03-24T19:11:05.971Z,2.93
2019-03-24T19:13:36.813Z,2.50
2019-03-24T19:16:07.380Z,2.50
2019-03-24T19:18:37.867Z,2.60
2019-03-24T19:21:08.431Z,2.50
2019-03-24T19:23:39.113Z,2.60
2019-03-24T19:26:10.788Z,2.60
2019-03-24T19:28:41.333Z,3.10
2019-03-24T19:31:11.885Z,2.70
2019-03-24T19:33:42.646Z,3.43
2019-03-24T19:36:13.101Z,2.73
2019-03-24T19:38:44.652Z,2.63
2019-03-24T19:41:15.221Z,2.43
2019-03-24T19:43:45.690Z,2.47
2019-03-24T19:46:16.651Z,2.53
2019-03-24T19:48:47.271Z,2.33
2019-03-24T19:51:17.922Z,2.93
2019-03-24T19:53:48.578Z,3.10
2019-03-24T19:56:19.193Z,2.90
2019-03-24T19:58:49.567Z,2.87
2019-03-24T20:01:20.074Z,2.33
2019-03-24T20:03:50.557Z,2.50
2019-03-24T20:06:21.356Z,2.57
2019-03-24T20:08:52.534Z,2.93
2019-03-24T20:11:23.166Z,2.33
2019-03-24T20:13:53.757Z,3.37
2019-03-24T20:16:24.211Z,2.93
2019-03-24T20:18:54.778Z,2.90
2019-03-24T20:21:25.292Z,2.30
2019-03-24T20:23:56.081Z,2.90
2019-03-24T20:26:26.586Z,3.43
2019-03-24T20:28:57.067Z,2.70
2019-03-24T20:31:28.631Z,3.13
2019-03-24T20:33:59.099Z,3.47
2019-03-24T20:36:29.746Z,3.27
2019-03-24T20:39:00.221Z,3.73
2019-03-24T20:41:30.744Z,3.50
2019-03-24T20:44:01.304Z,3.63
2019-03-24T20:46:33.038Z,3.47
2019-03-24T20:49:09.274Z,3.33
2019-03-24T20:51:39.858Z,3.30
2019-03-24T20:54:10.756Z,3.70
2019-03-24T20:56:41.785Z,3.53
2019-03-24T20:59:12.181Z,3.63
2019-03-24T21:01:42.785Z,3.53
2019-03-24T21:04:13.232Z,4.00
2019-03-24T21:06:43.817Z,3.77
2019-03-24T21:09:14.966Z,3.83
2019-03-24T21:11:45.427Z,3.40
2019-03-24T21:14:16.004Z,3.47
2019-03-24T21:16:46.456Z,3.30
2019-03-24T21:19:17.078Z,3.27
2019-03-24T21:21:47.481Z,3.57
2019-03-24T21:24:17.934Z,3.13
2019-03-24T21:26:48.301Z,4.17
2019-03-24T21:29:18.792Z,4.27
2019-03-24T21:31:50.097Z,4.10
2019-03-24T21:34:20.614Z,3.37
2019-03-24T21:36:51.163Z,3.57
2019-03-24T21:39:21.800Z,4.13
2019-03-24T21:41:52.171Z,3.67
2019-03-24T21:44:22.742Z,3.40
2019-03-24T21:46:53.241Z,3.67
2019-03-24T21:49:23.851Z,3.80
2019-03-24T21:51:54.327Z,3.83
2019-03-24T21:54:24.817Z,4.27
2019-03-24T21:56:55.251Z,3.20
2019-03-24T21:59:25.687Z,3.53
2019-03-24T22:01:55.993Z,3.93
2019-03-24T22:04:26.481Z,3.37
2019-03-24T22:06:56.589Z,3.57
2019-03-24T22:09:26.776Z,3.70
2019-03-24T22:11:56.977Z,3.67
2019-03-24T22:14:27.273Z,3.73
2019-03-24T22:16:57.494Z,3.97
2019-03-24T22:19:27.524Z,4.10
2019-03-24T22:21:57.638Z,4.20
2019-03-24T22:24:27.707Z,4.00
2019-03-24T22:26:58.058Z,4.00
2019-03-24T22:29:28.404Z,3.43
2019-03-24T22:31:58.676Z,3.43
2019-03-24T22:34:28.806Z,3.23
2019-03-24T22:36:58.988Z,3.90
2019-03-24T22:39:29.444Z,4.77
2019-03-24T22:41:59.573Z,3.90
2019-03-24T22:44:29.603Z,3.60
2019-03-24T22:46:59.677Z,3.33
2019-03-24T22:49:30.945Z,4.50
2019-03-24T22:52:07.112Z,3.87
2019-03-24T22:54:32.801Z,3.73
2019-03-24T22:57:02.882Z,4.40
2019-03-24T22:59:33.119Z,4.63
2019-03-24T23:02:03.515Z,4.07
2019-03-24T23:04:33.631Z,3.57
2019-03-24T23:07:03.712Z,3.73
2019-03-24T23:09:33.946Z,3.73
2019-03-24T23:12:04.679Z,3.77
2019-03-24T23:14:34.810Z,3.97
2019-03-24T23:17:05.014Z,3.83
2019-03-24T23:19:35.178Z,3.70
2019-03-24T23:22:05.899Z,4.63
2019-03-24T23:24:36.025Z,3.97
2019-03-24T23:27:06.096Z,4.20
2019-03-24T23:29:36.237Z,4.47
2019-03-24T23:32:06.356Z,3.93
2019-03-24T23:34:36.469Z,4.13
2019-03-24T23:37:06.837Z,4.47
2019-03-24T23:39:36.925Z,4.57
2019-03-24T23:42:07.026Z,4.00
2019-03-24T23:44:37.121Z,4.17
2019-03-24T23:47:07.301Z,4.53
2019-03-24T23:49:37.750Z,4.13
2019-03-24T23:52:07.951Z,3.93
2019-03-24T23:54:38.375Z,4.30
2019-03-24T23:57:08.794Z,4.03
2019-03-24T23:59:38.899Z,3.80
